Time;durP1;ratioP1;P1;durP2;ratioP2;P2;SDS_P1;SDS_P2;PMS_P1;PMS_P2;Temp;Humidity;BMP_temperature;BMP_pressure;BME280_temperature;BME280_humidity;BME280_pressure;Samples;Min_cycle;Max_cycle;Signal;HPM_P1;HPM_P2
2023/03/23 00:02:26;;;;;;;14.90;10.20;;;;;;;;;;5050356;28;20116;-62
2023/03/23 00:04:53;;;;;;;16.45;10.73;;;;;;;;;;5050155;28;20574;-62
2023/03/23 00:07:21;;;;;;;12.75;9.32;;;;;;;;;;5050421;28;20075;-62
2023/03/23 00:09:53;;;;;;;17.35;10.10;;;;;;;;;;5050363;28;20052;-62
2023/03/23 00:12:21;;;;;;;13.15;9.20;;;;;;;;;;5049725;28;20048;-62
2023/03/23 00:14:47;;;;;;;15.95;9.85;;;;;;;;;;5050163;28;20045;-62
2023/03/23 00:17:14;;;;;;;15.70;9.18;;;;;;;;;;5050175;28;20041;-62
2023/03/23 00:19:45;;;;;;;16.40;8.95;;;;;;;;;;5049517;28;20526;-62
2023/03/23 00:22:12;;;;;;;13.80;8.52;;;;;;;;;;5049783;28;20470;-62
2023/03/23 00:24:38;;;;;;;15.38;9.77;;;;;;;;;;5050042;28;20335;-62
2023/03/23 00:27:04;;;;;;;15.45;9.23;;;;;;;;;;5049280;28;20036;-62
2023/03/23 00:29:31;;;;;;;13.35;8.63;;;;;;;;;;5049581;28;20049;-62
2023/03/23 00:31:57;;;;;;;13.88;8.80;;;;;;;;;;5049682;28;20045;-62
2023/03/23 00:34:25;;;;;;;12.63;8.27;;;;;;;;;;5049258;28;20633;-62
2023/03/23 00:36:56;;;;;;;13.30;7.70;;;;;;;;;;5049826;28;20120;-62
2023/03/23 00:39:24;;;;;;;13.68;7.97;;;;;;;;;;5049643;28;20040;-62
2023/03/23 00:41:50;;;;;;;13.32;7.85;;;;;;;;;;5049196;28;20053;-62
2023/03/23 00:44:16;;;;;;;14.40;7.90;;;;;;;;;;5049634;28;20044;-62
2023/03/23 00:46:46;;;;;;;13.65;8.43;;;;;;;;;;5049514;28;20510;-62
2023/03/23 00:49:16;;;;;;;12.55;7.97;;;;;;;;;;5048607;28;20052;-62
2023/03/23 00:51:42;;;;;;;14.93;7.85;;;;;;;;;;5049699;28;20047;-62
2023/03/23 00:54:09;;;;;;;13.00;7.10;;;;;;;;;;5049523;28;20033;-62
2023/03/23 00:56:35;;;;;;;13.40;6.80;;;;;;;;;;5048855;28;20059;-62
2023/03/23 00:59:02;;;;;;;14.18;6.90;;;;;;;;;;5049177;28;20057;-62
2023/03/23 01:01:28;;;;;;;10.60;6.05;;;;;;;;;;5049481;28;20045;-62
2023/03/23 01:04:00;;;;;;;11.40;6.45;;;;;;;;;;5048915;28;20103;-62
2023/03/23 01:06:26;;;;;;;;;;;;;;;;;;5049988;28;20048;-62
2023/03/23 01:08:53;;;;;;;10.93;6.00;;;;;;;;;;5049421;28;19917;-62
2023/03/23 01:11:20;;;;;;;12.23;5.47;;;;;;;;;;5048653;28;20051;-62
2023/03/23 01:13:46;;;;;;;11.48;5.43;;;;;;;;;;5049174;28;20041;-62
2023/03/23 01:16:13;;;;;;;11.50;5.50;;;;;;;;;;5048871;28;20124;-62
2023/03/23 01:18:39;;;;;;;8.38;4.53;;;;;;;;;;5048391;28;20391;-62
2023/03/23 01:21:06;;;;;;;10.30;4.90;;;;;;;;;;5048849;28;20530;-62
2023/03/23 01:23:34;;;;;;;8.18;4.30;;;;;;;;;;5048760;28;20052;-62
2023/03/23 01:26:03;;;;;;;8.18;4.68;;;;;;;;;;5048691;28;20399;-62
2023/03/23 01:28:29;;;;;;;11.65;5.25;;;;;;;;;;5049180;28;20479;-62
2023/03/23 01:30:59;;;;;;;11.18;5.32;;;;;;;;;;5049042;28;20569;-62
2023/03/23 01:33:25;;;;;;;9.30;4.30;;;;;;;;;;5048441;28;20033;-62
2023/03/23 01:35:51;;;;;;;8.68;4.15;;;;;;;;;;5049075;28;20087;-62
2023/03/23 01:38:17;;;;;;;7.70;4.10;;;;;;;;;;5049158;28;20043;-62
2023/03/23 01:40:43;;;;;;;7.47;4.18;;;;;;;;;;5048191;28;20045;-62
2023/03/23 01:43:14;;;;;;;9.73;4.18;;;;;;;;;;5052759;28;20497;-62
2023/03/23 01:45:40;;;;;;;8.02;4.07;;;;;;;;;;5053195;28;20053;-62
2023/03/23 01:48:13;;;;;;;8.65;4.10;;;;;;;;;;5052548;28;20033;-62
2023/03/23 01:50:58;;;;;;;8.60;4.07;;;;;;;;;;5053195;28;20045;-62
2023/03/23 01:53:26;;;;;;;9.65;4.60;;;;;;;;;;5052979;28;20063;-62
2023/03/23 01:55:54;;;;;;;8.45;3.92;;;;;;;;;;5052393;28;20460;-62
2023/03/23 01:58:21;;;;;;;9.30;4.35;;;;;;;;;;5053232;28;20033;-62
2023/03/23 02:00:48;;;;;;;9.18;4.13;;;;;;;;;;5052816;28;20037;-62
2023/03/23 02:03:16;;;;;;;7.60;4.10;;;;;;;;;;5052113;28;20044;-62
2023/03/23 02:05:43;;;;;;;9.18;3.85;;;;;;;;;;5052884;28;20168;-62
2023/03/23 02:08:09;;;;;;;7.43;4.22;;;;;;;;;;5052846;28;20047;-62
2023/03/23 02:10:36;;;;;;;6.90;4.40;;;;;;;;;;5051643;28;20052;-62
2023/03/23 02:13:03;;;;;;;5.45;3.85;;;;;;;;;;5052589;28;20048;-62
2023/03/23 02:15:35;;;;;;;7.95;4.10;;;;;;;;;;5052594;28;20116;-62
2023/03/23 02:18:19;;;;;;;8.63;4.10;;;;;;;;;;5051839;28;20479;-62
2023/03/23 02:21:10;;;;;;;9.73;4.78;;;;;;;;;;5052383;28;20338;-62
2023/03/23 02:23:48;;;;;;;8.05;3.75;;;;;;;;;;5051863;28;20053;-62
2023/03/23 02:26:14;;;;;;;7.57;3.85;;;;;;;;;;5041961;28;20057;-62
2023/03/23 02:28:49;;;;;;;5.88;3.60;;;;;;;;;;5052377;28;20466;-62
2023/03/23 02:31:17;;;;;;;8.95;3.53;;;;;;;;;;5052209;28;20072;-62
2023/03/23 02:33:43;;;;;;;8.43;3.72;;;;;;;;;;5051478;28;20081;-62
2023/03/23 02:36:15;;;;;;;8.90;4.05;;;;;;;;;;5052212;28;20087;-62
2023/03/23 02:39:00;;;;;;;8.20;4.10;;;;;;;;;;5051709;28;20068;-62
2023/03/23 02:41:28;;;;;;;6.88;3.70;;;;;;;;;;5051903;28;20407;-62
2023/03/23 02:43:55;;;;;;;9.00;3.92;;;;;;;;;;5034318;28;20064;-62
2023/03/23 02:46:22;;;;;;;6.63;3.45;;;;;;;;;;5051879;28;20399;-62
2023/03/23 02:48:51;;;;;;;8.43;3.20;;;;;;;;;;5051463;28;20391;-62
2023/03/23 02:51:18;;;;;;;8.30;3.40;;;;;;;;;;5051997;28;20041;-62
2023/03/23 02:53:45;;;;;;;6.20;3.40;;;;;;;;;;5050829;28;20424;-62
2023/03/23 02:56:13;;;;;;;5.53;3.40;;;;;;;;;;5051496;28;20040;-62
2023/03/23 02:58:39;;;;;;;5.07;3.33;;;;;;;;;;5051734;28;20076;-62
2023/03/23 03:01:37;;;;;;;5.85;3.35;;;;;;;;;;5051481;28;20060;-62
2023/03/23 03:04:12;;;;;;;7.93;3.25;;;;;;;;;;5046703;28;20049;-62
2023/03/23 03:06:58;;;;;;;8.18;3.78;;;;;;;;;;5051639;28;20041;-62
2023/03/23 03:09:23;;;;;;;9.13;3.35;;;;;;;;;;5050820;28;20447;-62
2023/03/23 03:11:52;;;;;;;8.35;3.72;;;;;;;;;;5051494;28;20080;-62
2023/03/23 03:14:27;;;;;;;6.32;3.40;;;;;;;;;;5051378;28;20041;-62
2023/03/23 03:16:59;;;;;;;8.50;4.07;;;;;;;;;;5050710;28;20484;-62
2023/03/23 03:19:27;;;;;;;5.15;3.53;;;;;;;;;;5051305;28;20040;-62
2023/03/23 03:21:54;;;;;;;7.00;3.70;;;;;;;;;;5050740;28;20053;-62
2023/03/23 03:24:22;;;;;;;9.13;3.70;;;;;;;;;;5050430;28;20044;-62
2023/03/23 03:26:50;;;;;;;4.60;3.20;;;;;;;;;;5051171;28;20043;-62
2023/03/23 03:29:23;;;;;;;5.00;3.78;;;;;;;;;;5051136;28;20285;-62
2023/03/23 03:31:50;;;;;;;9.23;3.53;;;;;;;;;;5050608;28;20555;-62
2023/03/23 03:34:17;;;;;;;7.07;3.55;;;;;;;;;;5051050;28;20391;-62
2023/03/23 03:36:45;;;;;;;7.95;3.95;;;;;;;;;;5051157;28;20110;-62
2023/03/23 03:39:14;;;;;;;5.10;3.55;;;;;;;;;;5050360;28;20494;-62
2023/03/23 03:41:40;;;;;;;9.15;3.60;;;;;;;;;;5051048;28;20040;-62
2023/03/23 03:44:07;;;;;;;6.15;3.53;;;;;;;;;;5050784;28;20076;-62
2023/03/23 03:46:33;;;;;;;5.60;4.03;;;;;;;;;;5050115;28;20076;-62
2023/03/23 03:49:00;;;;;;;5.82;4.00;;;;;;;;;;5050639;28;20123;-62
2023/03/23 03:51:27;;;;;;;9.30;4.03;;;;;;;;;;5050802;28;20100;-62
2023/03/23 03:53:53;;;;;;;6.10;3.90;;;;;;;;;;5050037;28;20037;-62
2023/03/23 03:56:21;;;;;;;7.13;3.45;;;;;;;;;;5050643;28;20044;-62
2023/03/23 03:58:48;;;;;;;8.75;3.70;;;;;;;;;;5050625;28;20041;-62
2023/03/23 04:01:15;;;;;;;5.35;3.63;;;;;;;;;;5049876;28;20391;-62
2023/03/23 04:03:41;;;;;;;5.10;3.95;;;;;;;;;;5050497;28;20415;-62
2023/03/23 04:06:08;;;;;;;9.07;4.22;;;;;;;;;;5049441;28;20044;-62
2023/03/23 04:08:34;;;;;;;5.32;4.10;;;;;;;;;;5049654;28;20041;-62
2023/03/23 04:11:00;;;;;;;5.65;4.28;;;;;;;;;;5050423;28;20045;-62
2023/03/23 04:13:26;;;;;;;9.25;3.60;;;;;;;;;;5050340;28;20477;-62
2023/03/23 04:15:52;;;;;;;6.82;4.22;;;;;;;;;;5031568;28;20049;-62
2023/03/23 04:18:19;;;;;;;6.70;4.40;;;;;;;;;;5050309;28;20067;-62
2023/03/23 04:20:47;;;;;;;7.07;4.70;;;;;;;;;;5050264;28;20619;-62
2023/03/23 04:23:13;;;;;;;7.57;4.43;;;;;;;;;;5049101;28;20061;-62
2023/03/23 04:25:41;;;;;;;9.85;4.50;;;;;;;;;;5049639;28;20041;-62
2023/03/23 04:28:09;;;;;;;5.63;4.03;;;;;;;;;;5050012;28;20079;-62
2023/03/23 04:30:36;;;;;;;7.55;4.70;;;;;;;;;;5031509;28;20073;-62
2023/03/23 04:33:02;;;;;;;7.57;4.63;;;;;;;;;;5049890;28;20041;-62
2023/03/23 04:35:29;;;;;;;10.05;4.78;;;;;;;;;;5050079;28;20041;-62
2023/03/23 04:37:55;;;;;;;7.30;4.43;;;;;;;;;;5049345;28;20462;-62
2023/03/23 04:40:22;;;;;;;9.15;4.32;;;;;;;;;;5049617;28;20037;-62
2023/03/23 04:42:50;;;;;;;9.60;4.70;;;;;;;;;;5049761;28;20037;-62
2023/03/23 04:45:21;;;;;;;11.50;4.90;;;;;;;;;;5049181;28;20048;-62
2023/03/23 04:47:52;;;;;;;14.57;5.45;;;;;;;;;;5049748;28;20060;-62
2023/03/23 04:50:19;;;;;;;14.90;6.03;;;;;;;;;;5049777;28;20443;-62
2023/03/23 04:52:45;;;;;;;11.52;5.53;;;;;;;;;;5049208;28;20418;-62
2023/03/23 04:55:12;;;;;;;12.35;5.65;;;;;;;;;;5049709;28;20598;-63
2023/03/23 04:57:39;;;;;;;10.45;5.97;;;;;;;;;;5049900;28;20087;-63
2023/03/23 05:00:08;;;;;;;7.03;2.75;;;;;;;;;;5048963;28;20056;-63
2023/03/23 05:02:35;;;;;;;4.85;2.35;;;;;;;;;;5049090;28;20037;-63
2023/03/23 05:05:01;;;;;;;6.20;2.60;;;;;;;;;;5049407;28;20534;-63
2023/03/23 05:07:27;;;;;;;9.63;2.75;;;;;;;;;;5048857;28;20041;-63
2023/03/23 05:09:53;;;;;;;5.85;2.20;;;;;;;;;;5049211;28;20587;-63
2023/03/23 05:12:19;;;;;;;6.40;2.00;;;;;;;;;;5049590;28;20442;-63
2023/03/23 05:14:45;;;;;;;4.60;1.70;;;;;;;;;;5048730;28;20491;-63
2023/03/23 05:17:16;;;;;;;9.48;2.10;;;;;;;;;;5049014;28;20037;-63
2023/03/23 05:19:43;;;;;;;6.82;2.30;;;;;;;;;;5049368;28;20045;-63
2023/03/23 05:22:09;;;;;;;8.50;2.35;;;;;;;;;;5048589;28;20592;-63
2023/03/23 05:24:35;;;;;;;13.43;2.65;;;;;;;;;;5049342;28;20044;-63
2023/03/23 05:27:03;;;;;;;10.70;3.10;;;;;;;;;;5049301;28;20117;-63
2023/03/23 05:29:33;;;;;;;12.02;3.13;;;;;;;;;;5048770;28;20048;-63
2023/03/23 05:32:00;;;;;;;10.57;2.78;;;;;;;;;;5049816;28;20056;-63
2023/03/23 05:34:26;;;;;;;15.25;3.33;;;;;;;;;;5051071;28;20037;-63
2023/03/23 05:36:55;;;;;;;15.63;3.70;;;;;;;;;;5050177;28;20076;-63
2023/03/23 05:39:21;;;;;;;8.48;2.63;;;;;;;;;;5050547;28;20124;-63
2023/03/23 05:41:47;;;;;;;12.95;2.80;;;;;;;;;;5051350;28;20092;-63
2023/03/23 05:44:14;;;;;;;16.40;2.85;;;;;;;;;;5050254;28;20040;-63
2023/03/23 05:46:40;;;;;;;14.35;2.67;;;;;;;;;;5050921;28;20084;-63
2023/03/23 05:49:07;;;;;;;13.25;3.42;;;;;;;;;;5049249;28;20064;-63
2023/03/23 05:51:33;;;;;;;9.38;2.42;;;;;;;;;;5050152;28;20041;-63
2023/03/23 05:53:59;;;;;;;10.85;2.65;;;;;;;;;;5032848;28;20041;-63
2023/03/23 05:56:25;;;;;;;14.52;2.50;;;;;;;;;;5051067;28;20560;-63
2023/03/23 05:58:52;;;;;;;9.48;2.58;;;;;;;;;;5050112;28;20048;-63
2023/03/23 06:01:18;;;;;;;8.93;1.83;;;;;;;;;;5050683;28;20045;-63
2023/03/23 06:03:45;;;;;;;7.75;1.98;;;;;;;;;;5050695;28;20040;-62
2023/03/23 06:06:11;;;;;;;9.82;2.10;;;;;;;;;;5046779;28;20059;-62
2023/03/23 06:08:38;;;;;;;8.10;2.00;;;;;;;;;;5050313;28;20123;-61
2023/03/23 06:11:04;;;;;;;13.15;2.20;;;;;;;;;;5050565;28;20183;-61
2023/03/23 06:13:30;;;;;;;13.18;2.33;;;;;;;;;;5033051;28;20128;-62
2023/03/23 06:15:57;;;;;;;11.43;2.22;;;;;;;;;;5050147;28;20088;-62
2023/03/23 06:18:23;;;;;;;11.93;2.63;;;;;;;;;;5050973;28;20033;-62
2023/03/23 06:20:50;;;;;;;10.10;2.40;;;;;;;;;;5050552;28;20041;-62
2023/03/23 06:23:17;;;;;;;8.00;2.50;;;;;;;;;;5049698;28;20407;-62
2023/03/23 06:25:43;;;;;;;10.43;2.85;;;;;;;;;;5050771;28;20037;-62
2023/03/23 06:28:10;;;;;;;12.25;2.92;;;;;;;;;;5052164;28;20041;-62
2023/03/23 06:30:38;;;;;;;14.38;2.97;;;;;;;;;;5054417;28;20052;-62
2023/03/23 06:33:05;;;;;;;16.63;3.08;;;;;;;;;;5054620;28;20049;-62
2023/03/23 06:35:32;;;;;;;13.30;3.25;;;;;;;;;;5054295;28;20052;-62
2023/03/23 06:38:01;;;;;;;13.63;2.65;;;;;;;;;;5054086;28;20138;-62
2023/03/23 06:40:28;;;;;;;15.85;3.33;;;;;;;;;;5056215;28;20044;-63
2023/03/23 06:42:54;;;;;;;14.57;3.10;;;;;;;;;;5054139;28;20499;-62
2023/03/23 06:45:20;;;;;;;20.52;3.63;;;;;;;;;;5053235;28;20048;-62
2023/03/23 06:47:49;;;;;;;25.40;3.95;;;;;;;;;;5054131;28;20053;-62
2023/03/23 06:50:16;;;;;;;21.73;3.60;;;;;;;;;;5053482;28;20426;-63
2023/03/23 06:52:46;;;;;;;25.80;3.90;;;;;;;;;;5052337;28;20143;-62
2023/03/23 06:55:13;;;;;;;15.65;3.70;;;;;;;;;;5053641;28;20045;-62
2023/03/23 06:57:39;;;;;;;19.90;3.30;;;;;;;;;;5053499;28;20487;-62
2023/03/23 07:00:07;;;;;;;30.55;4.10;;;;;;;;;;5054635;28;20040;-63
2023/03/23 07:02:34;;;;;;;30.05;4.35;;;;;;;;;;5053674;28;20064;-62
2023/03/23 07:05:00;;;;;;;22.75;4.28;;;;;;;;;;5053069;28;20115;-64
2023/03/23 07:07:26;;;;;;;19.52;3.83;;;;;;;;;;5052310;28;20109;-64
2023/03/23 07:09:52;;;;;;;24.83;4.18;;;;;;;;;;5052617;28;20036;-63
2023/03/23 07:12:18;;;;;;;19.67;3.72;;;;;;;;;;5052810;28;20487;-62
2023/03/23 07:14:44;;;;;;;26.33;3.72;;;;;;;;;;5051954;28;20101;-62
2023/03/23 07:17:11;;;;;;;20.10;3.85;;;;;;;;;;5053139;28;20044;-63
2023/03/23 07:19:37;;;;;;;29.42;4.57;;;;;;;;;;5053173;28;20099;-63
2023/03/23 07:22:05;;;;;;;19.60;3.55;;;;;;;;;;5051708;28;20053;-63
2023/03/23 07:24:31;;;;;;;19.58;3.88;;;;;;;;;;5044811;28;20049;-64
2023/03/23 07:26:57;;;;;;;16.63;4.25;;;;;;;;;;5052141;28;20059;-65
2023/03/23 07:29:23;;;;;;;25.80;4.65;;;;;;;;;;5051318;28;20055;-64
2023/03/23 07:31:51;;;;;;;21.52;3.90;;;;;;;;;;5051311;28;20184;-63
2023/03/23 07:34:17;;;;;;;18.20;3.35;;;;;;;;;;5045115;28;20098;-64
2023/03/23 07:36:43;;;;;;;21.73;4.30;;;;;;;;;;5050542;28;20049;-64
2023/03/23 07:39:09;;;;;;;18.40;3.85;;;;;;;;;;5047773;28;20048;-63
2023/03/23 07:41:35;;;;;;;22.52;4.78;;;;;;;;;;5051504;28;20399;-63
2023/03/23 07:44:01;;;;;;;21.00;3.85;;;;;;;;;;5051140;28;20056;-63
2023/03/23 07:46:27;;;;;;;20.02;4.15;;;;;;;;;;5051380;28;20040;-63
2023/03/23 07:48:53;;;;;;;19.35;3.50;;;;;;;;;;5047121;28;20041;-63
2023/03/23 07:51:21;;;;;;;21.10;3.60;;;;;;;;;;5050584;28;20048;-63
2023/03/23 07:53:47;;;;;;;23.65;4.13;;;;;;;;;;5051121;28;20060;-63
2023/03/23 07:56:14;;;;;;;17.52;4.03;;;;;;;;;;5050912;28;20488;-64
2023/03/23 07:58:41;;;;;;;25.48;3.72;;;;;;;;;;5047223;28;20044;-63
2023/03/23 08:01:08;;;;;;;22.90;4.07;;;;;;;;;;5049495;28;20037;-63
2023/03/23 08:03:34;;;;;;;28.08;4.95;;;;;;;;;;5050728;28;20519;-61
2023/03/23 08:06:00;;;;;;;22.35;3.95;;;;;;;;;;5049312;28;20048;-63
2023/03/23 08:08:26;;;;;;;23.95;4.13;;;;;;;;;;5050880;28;20045;-63
2023/03/23 08:10:53;;;;;;;25.58;5.10;;;;;;;;;;5031817;28;20041;-62
2023/03/23 08:13:19;;;;;;;27.15;4.57;;;;;;;;;;5049353;28;20168;-63
2023/03/23 08:15:45;;;;;;;30.50;4.65;;;;;;;;;;5049599;28;20475;-63
2023/03/23 08:18:11;;;;;;;23.55;4.20;;;;;;;;;;5049908;28;20124;-63
2023/03/23 08:20:37;;;;;;;29.58;4.55;;;;;;;;;;5049876;28;20120;-63
2023/03/23 08:23:04;;;;;;;29.02;4.63;;;;;;;;;;5049077;28;20049;-63
2023/03/23 08:25:34;;;;;;;20.67;4.07;;;;;;;;;;5049655;28;20059;-62
2023/03/23 08:28:03;;;;;;;31.92;4.60;;;;;;;;;;5049791;28;20041;-62
2023/03/23 08:30:30;;;;;;;24.75;3.83;;;;;;;;;;5050161;28;20500;-63
2023/03/23 08:32:56;;;;;;;27.63;4.35;;;;;;;;;;5049908;28;20498;-62
2023/03/23 08:35:23;;;;;;;22.42;4.05;;;;;;;;;;5049294;28;20094;-62
2023/03/23 08:37:51;;;;;;;20.13;4.25;;;;;;;;;;5049180;28;20041;-62
2023/03/23 08:40:19;;;;;;;22.77;3.92;;;;;;;;;;5048154;28;20171;-63
2023/03/23 08:42:45;;;;;;;25.60;4.10;;;;;;;;;;5045733;28;20313;-62
2023/03/23 08:45:15;;;;;;;24.45;4.30;;;;;;;;;;5050098;28;20080;-62
2023/03/23 08:47:42;;;;;;;29.48;5.00;;;;;;;;;;5049828;28;20107;-62
2023/03/23 08:50:09;;;;;;;42.92;5.78;;;;;;;;;;5048904;28;20045;-62
2023/03/23 08:52:37;;;;;;;26.27;4.18;;;;;;;;;;5048571;28;20049;-62
2023/03/23 08:55:04;;;;;;;21.70;4.63;;;;;;;;;;5051450;28;20471;-62
2023/03/23 08:57:30;;;;;;;24.75;4.18;;;;;;;;;;5050277;28;20052;-63
2023/03/23 09:00:03;;;;;;;20.67;3.47;;;;;;;;;;5031560;28;20037;-62
2023/03/23 09:02:31;;;;;;;29.63;4.70;;;;;;;;;;5048338;28;20041;-62
2023/03/23 09:04:57;;;;;;;24.15;4.45;;;;;;;;;;5049206;28;20056;-62
2023/03/23 09:07:23;;;;;;;19.35;3.88;;;;;;;;;;5049027;28;20071;-62
2023/03/23 09:09:50;;;;;;;22.67;4.55;;;;;;;;;;5035142;28;20483;-62
2023/03/23 09:12:16;;;;;;;23.75;4.30;;;;;;;;;;5048234;28;20053;-63
2023/03/23 09:14:45;;;;;;;29.35;4.47;;;;;;;;;;5048899;28;20459;-63
2023/03/23 09:17:11;;;;;;;25.23;5.13;;;;;;;;;;5048552;28;20175;-62
2023/03/23 09:19:38;;;;;;;21.63;4.10;;;;;;;;;;5048079;28;20083;-63
2023/03/23 09:22:04;;;;;;;20.65;4.22;;;;;;;;;;5048067;28;20478;-62
2023/03/23 09:24:30;;;;;;;26.60;4.80;;;;;;;;;;5048672;28;20080;-62
2023/03/23 09:26:58;;;;;;;22.80;4.07;;;;;;;;;;5048310;28;20375;-62
2023/03/23 09:29:25;;;;;;;20.63;4.20;;;;;;;;;;5048835;28;20048;-62
2023/03/23 09:31:51;;;;;;;24.38;3.63;;;;;;;;;;5048647;28;20056;-63
2023/03/23 09:34:17;;;;;;;30.23;4.60;;;;;;;;;;5048156;28;20041;-62
2023/03/23 09:36:44;;;;;;;17.48;3.50;;;;;;;;;;5045994;28;20290;-62
2023/03/23 09:39:11;;;;;;;21.70;3.45;;;;;;;;;;5045067;28;20040;-61
2023/03/23 09:41:52;;;;;;;25.65;5.25;;;;;;;;;;5048088;28;20080;-62
2023/03/23 09:44:33;;;;;;;19.40;3.60;;;;;;;;;;5048780;28;20191;-61
2023/03/23 09:47:19;;;;;;;20.77;4.50;;;;;;;;;;5048778;28;20051;-61
2023/03/23 09:49:59;;;;;;;28.42;4.00;;;;;;;;;;5043774;28;20059;-63
2023/03/23 09:52:46;;;;;;;20.13;3.78;;;;;;;;;;5048805;28;20115;-61
2023/03/23 09:55:14;;;;;;;20.40;3.65;;;;;;;;;;5040658;28;20361;-62
2023/03/23 09:58:02;;;;;;;24.00;3.88;;;;;;;;;;5047623;28;20048;-61
2023/03/23 10:00:35;;;;;;;19.63;3.80;;;;;;;;;;5047647;28;20124;-61
2023/03/23 10:03:21;;;;;;;21.60;3.38;;;;;;;;;;5049603;28;20122;-62
2023/03/23 10:05:49;;;;;;;14.55;3.28;;;;;;;;;;5052277;28;20049;-61
2023/03/23 10:08:15;;;;;;;24.63;3.53;;;;;;;;;;5052786;28;20143;-61
2023/03/23 10:10:56;;;;;;;18.98;3.08;;;;;;;;;;5050801;28;20974;-62
2023/03/23 10:13:35;;;;;;;15.50;2.85;;;;;;;;;;5052093;28;20173;-63
2023/03/23 10:16:03;;;;;;;16.10;3.40;;;;;;;;;;5052392;28;20041;-63
2023/03/23 10:18:43;;;;;;;21.42;4.13;;;;;;;;;;5051613;28;20044;-63
2023/03/23 10:21:16;;;;;;;17.40;3.25;;;;;;;;;;5051904;28;20120;-63
2023/03/23 10:23:46;;;;;;;17.77;3.45;;;;;;;;;;5051678;28;20114;-62
2023/03/23 10:26:27;;;;;;;17.52;3.00;;;;;;;;;;5051112;28;20048;-62
2023/03/23 10:29:11;;;;;;;17.42;2.97;;;;;;;;;;5050280;28;20037;-62
2023/03/23 10:31:43;;;;;;;10.52;2.55;;;;;;;;;;5058913;28;20076;-62
2023/03/23 10:34:32;;;;;;;18.27;3.58;;;;;;;;;;5048404;28;20388;-62
2023/03/23 10:37:01;;;;;;;15.98;3.20;;;;;;;;;;5041177;28;20045;-62
2023/03/23 10:39:48;;;;;;;13.32;2.70;;;;;;;;;;5051646;28;20068;-62
2023/03/23 10:42:22;;;;;;;14.30;2.90;;;;;;;;;;5048677;28;20116;-63
2023/03/23 10:44:48;;;;;;;11.43;2.30;;;;;;;;;;5051490;28;20040;-62
2023/03/23 10:47:15;;;;;;;9.98;2.78;;;;;;;;;;5052841;28;20044;-62
2023/03/23 10:49:45;;;;;;;14.18;2.78;;;;;;;;;;5046291;28;20068;-62
2023/03/23 10:52:35;;;;;;;11.90;2.50;;;;;;;;;;5051879;28;20094;-63
2023/03/23 10:55:13;;;;;;;11.90;2.40;;;;;;;;;;5045387;28;20094;-63
2023/03/23 10:57:44;;;;;;;9.93;2.30;;;;;;;;;;5051701;28;20048;-63
2023/03/23 11:00:21;;;;;;;13.18;2.40;;;;;;;;;;5050791;28;20083;-63
2023/03/23 11:02:57;;;;;;;9.57;2.28;;;;;;;;;;5049726;28;20033;-62
2023/03/23 11:05:24;;;;;;;13.85;2.50;;;;;;;;;;5051268;28;20056;-63
2023/03/23 11:07:53;;;;;;;10.00;2.63;;;;;;;;;;5050250;28;20057;-62
2023/03/23 11:10:25;;;;;;;11.20;2.67;;;;;;;;;;5049131;28;20045;-63
2023/03/23 11:12:52;;;;;;;8.90;2.40;;;;;;;;;;5043297;28;20491;-63
2023/03/23 11:15:30;;;;;;;10.38;2.58;;;;;;;;;;5050102;28;20045;-63
2023/03/23 11:18:00;;;;;;;14.45;2.80;;;;;;;;;;5050693;28;20088;-63
2023/03/23 11:20:28;;;;;;;12.10;2.47;;;;;;;;;;5051713;28;20455;-63
2023/03/23 11:22:54;;;;;;;11.50;2.20;;;;;;;;;;5050389;28;20087;-63
2023/03/23 11:25:21;;;;;;;10.25;2.03;;;;;;;;;;5049764;28;20056;-63
2023/03/23 11:27:47;;;;;;;9.82;2.10;;;;;;;;;;5051636;28;20037;-64
2023/03/23 11:30:27;;;;;;;15.27;2.78;;;;;;;;;;5051256;28;20047;-63
2023/03/23 11:32:54;;;;;;;9.82;2.80;;;;;;;;;;5051597;28;20041;-63
2023/03/23 11:35:22;;;;;;;11.13;2.45;;;;;;;;;;5051495;28;20369;-63
2023/03/23 11:37:56;;;;;;;12.07;3.33;;;;;;;;;;5051603;28;20033;-64
2023/03/23 11:40:24;;;;;;;14.77;2.97;;;;;;;;;;5050670;28;20041;-64
2023/03/23 11:42:50;;;;;;;11.23;2.33;;;;;;;;;;5051413;28;20039;-63
2023/03/23 11:45:19;;;;;;;12.73;2.42;;;;;;;;;;5051915;28;20037;-63
2023/03/23 11:47:57;;;;;;;13.82;2.25;;;;;;;;;;5051237;28;20040;-64
2023/03/23 11:50:23;;;;;;;12.80;2.38;;;;;;;;;;5051688;28;20033;-63
2023/03/23 11:53:14;;;;;;;14.40;2.70;;;;;;;;;;5052090;28;20048;-64
2023/03/23 11:55:45;;;;;;;8.20;2.28;;;;;;;;;;5051374;28;20044;-63
2023/03/23 11:58:16;;;;;;;13.15;2.38;;;;;;;;;;5051654;28;20044;-63
2023/03/23 12:00:47;;;;;;;6.97;2.08;;;;;;;;;;5035097;28;20052;-63
2023/03/23 12:03:15;;;;;;;12.85;2.50;;;;;;;;;;5050775;28;20045;-62
2023/03/23 12:05:44;;;;;;;12.55;2.22;;;;;;;;;;5051851;28;20120;-62
2023/03/23 12:08:10;;;;;;;15.30;3.13;;;;;;;;;;5047319;28;20041;-63
2023/03/23 12:10:46;;;;;;;10.63;2.30;;;;;;;;;;5050664;28;20037;-62
2023/03/23 12:13:15;;;;;;;11.50;1.98;;;;;;;;;;5048220;28;20128;-62
2023/03/23 12:15:46;;;;;;;9.32;2.38;;;;;;;;;;5051152;28;20045;-62
2023/03/23 12:18:15;;;;;;;12.15;2.58;;;;;;;;;;5032475;28;20045;-62
2023/03/23 12:20:49;;;;;;;11.70;2.20;;;;;;;;;;5050620;28;20086;-62
2023/03/23 12:23:38;;;;;;;11.48;2.45;;;;;;;;;;5042055;28;20157;-63
2023/03/23 12:26:18;;;;;;;11.32;2.75;;;;;;;;;;5048771;28;20041;-64
2023/03/23 12:28:44;;;;;;;10.48;1.92;;;;;;;;;;5045639;28;20078;-64
2023/03/23 12:31:18;;;;;;;9.45;2.45;;;;;;;;;;5050609;28;20041;-62
2023/03/23 12:33:46;;;;;;;11.25;2.67;;;;;;;;;;5051886;28;20040;-63
2023/03/23 12:36:18;;;;;;;10.43;2.42;;;;;;;;;;5048446;28;20045;-63
2023/03/23 12:38:48;;;;;;;11.10;2.30;;;;;;;;;;5057301;28;20649;-63
2023/03/23 12:41:17;;;;;;;15.73;3.05;;;;;;;;;;5047531;28;20056;-65
2023/03/23 12:43:52;;;;;;;11.27;2.40;;;;;;;;;;5050253;28;20148;-63
2023/03/23 12:46:18;;;;;;;11.70;2.85;;;;;;;;;;5050537;28;20049;-63
2023/03/23 12:48:52;;;;;;;13.25;2.83;;;;;;;;;;5051464;28;20556;-62
2023/03/23 12:51:28;;;;;;;11.35;2.28;;;;;;;;;;5052266;28;20048;-62
2023/03/23 12:53:59;;;;;;;13.80;2.55;;;;;;;;;;5043158;28;20045;-63
2023/03/23 12:56:28;;;;;;;18.80;2.80;;;;;;;;;;5049103;28;20395;-63
2023/03/23 12:58:59;;;;;;;11.90;2.25;;;;;;;;;;5047675;28;20102;-63
2023/03/23 13:01:27;;;;;;;13.80;3.30;;;;;;;;;;5048798;28;20546;-62
2023/03/23 13:03:59;;;;;;;10.73;2.47;;;;;;;;;;5050225;28;20040;-63
2023/03/23 13:06:36;;;;;;;11.48;2.20;;;;;;;;;;5050466;28;20530;-62
2023/03/23 13:09:06;;;;;;;13.35;2.08;;;;;;;;;;5045768;28;20124;-62
2023/03/23 13:11:34;;;;;;;12.10;2.50;;;;;;;;;;5049333;28;20071;-63
2023/03/23 13:14:16;;;;;;;10.00;2.67;;;;;;;;;;5049480;28;20045;-63
2023/03/23 13:16:50;;;;;;;11.65;2.47;;;;;;;;;;5047122;28;20387;-63
2023/03/23 13:19:26;;;;;;;13.57;3.08;;;;;;;;;;5049566;28;20076;-63
2023/03/23 13:22:06;;;;;;;10.63;2.90;;;;;;;;;;5049904;28;20048;-63
2023/03/23 13:24:34;;;;;;;13.50;2.38;;;;;;;;;;5048779;28;20053;-64
2023/03/23 13:27:01;;;;;;;9.48;3.08;;;;;;;;;;5049269;28;20707;-64
2023/03/23 13:29:27;;;;;;;12.75;3.53;;;;;;;;;;5049352;28;20569;-63
2023/03/23 13:32:05;;;;;;;12.88;2.75;;;;;;;;;;5038467;28;20080;-63
2023/03/23 13:34:31;;;;;;;13.85;3.30;;;;;;;;;;5048937;28;20048;-63
2023/03/23 13:36:57;;;;;;;14.25;2.92;;;;;;;;;;5049709;28;20037;-64
2023/03/23 13:39:24;;;;;;;11.18;2.65;;;;;;;;;;5054863;28;20033;-63
2023/03/23 13:42:01;;;;;;;10.50;2.60;;;;;;;;;;5055391;28;20356;-65
2023/03/23 13:44:39;;;;;;;9.57;2.15;;;;;;;;;;5054644;28;20406;-64
2023/03/23 13:47:09;;;;;;;13.02;2.20;;;;;;;;;;5054280;28;20036;-63
2023/03/23 13:49:46;;;;;;;12.68;2.22;;;;;;;;;;5048325;28;20367;-64
2023/03/23 13:52:22;;;;;;;10.95;2.00;;;;;;;;;;5049623;28;20037;-63
2023/03/23 13:54:48;;;;;;;10.10;2.47;;;;;;;;;;5050907;28;20045;-65
2023/03/23 13:57:24;;;;;;;9.35;2.47;;;;;;;;;;5055717;28;20095;-64
2023/03/23 13:59:56;;;;;;;12.02;2.22;;;;;;;;;;5062942;28;20076;-64
2023/03/23 14:02:34;;;;;;;10.27;2.25;;;;;;;;;;5055373;28;20095;-64
2023/03/23 14:05:20;;;;;;;10.85;2.70;;;;;;;;;;5055789;28;20048;-64
2023/03/23 14:07:59;;;;;;;11.82;2.42;;;;;;;;;;5040782;28;20052;-64
2023/03/23 14:10:25;;;;;;;13.88;2.95;;;;;;;;;;5055870;28;20155;-65
2023/03/23 14:12:53;;;;;;;12.10;2.55;;;;;;;;;;5055644;28;20060;-66
2023/03/23 14:15:19;;;;;;;13.80;2.42;;;;;;;;;;5053715;28;20712;-65
2023/03/23 14:17:46;;;;;;;13.68;2.58;;;;;;;;;;5054283;28;20047;-64
2023/03/23 14:20:20;;;;;;;12.45;2.42;;;;;;;;;;5054869;28;20101;-64
2023/03/23 14:22:46;;;;;;;10.20;2.45;;;;;;;;;;5054732;28;20049;-65
2023/03/23 14:25:16;;;;;;;9.35;2.22;;;;;;;;;;5055220;28;20052;-63
2023/03/23 14:27:43;;;;;;;12.75;2.45;;;;;;;;;;5055621;28;20048;-64
2023/03/23 14:30:13;;;;;;;9.88;2.55;;;;;;;;;;5055030;28;20086;-64
2023/03/23 14:32:40;;;;;;;12.77;2.60;;;;;;;;;;5055554;28;20071;-64
2023/03/23 14:35:13;;;;;;;10.23;1.95;;;;;;;;;;5055076;28;20063;-65
2023/03/23 14:37:39;;;;;;;9.40;1.80;;;;;;;;;;5054629;28;20041;-63
2023/03/23 14:40:06;;;;;;;10.07;2.20;;;;;;;;;;5055163;28;20163;-63
2023/03/23 14:42:34;;;;;;;9.02;2.33;;;;;;;;;;5055015;28;20041;-63
2023/03/23 14:45:01;;;;;;;12.52;2.40;;;;;;;;;;5055020;28;20041;-64
2023/03/23 14:47:28;;;;;;;8.60;2.08;;;;;;;;;;5055853;28;20071;-64